Terminal Aerodrome Forecast
Issued by NWS Melbourne, FL

Current Version | Previous Version | Text Only | Print | Product List | Glossary On
Versions: 1 2 3 4 5 6 7 8 9 10 11 12 13 14 15 16 17 18 19 20 21 22 23 24 25 26 27 28 29
000
FTUS42 KMLB 010500
TAFMCO
TAF
KMCO 010524Z 0106/0206 00000KT P6SM SCT015 SCT025
     FM010900 00000KT 5SM BR SCT006
     FM011400 04006KT P6SM VCSH FEW030 BKN080
     FM012300 04006KT P6SM FEW025 SCT100 SCT250=

USA.gov is the U.S. government's official web portal to all federal, state and local government web resources and services.